sensor_id;sensor_type;location;lat;lon;timestamp;P1;durP1;ratioP1;P2;durP2;ratioP2
53010;SDS011;42803;55.762;38.084;2023-06-22T00:01:06;27.90;;;15.73;;
53010;SDS011;42803;55.762;38.084;2023-06-22T00:03:35;41.60;;;19.05;;
53010;SDS011;42803;55.762;38.084;2023-06-22T00:06:04;47.70;;;20.73;;
53010;SDS011;42803;55.762;38.084;2023-06-22T00:08:33;39.22;;;18.98;;
53010;SDS011;42803;55.762;38.084;2023-06-22T00:11:04;31.90;;;17.30;;
53010;SDS011;42803;55.762;38.084;2023-06-22T00:13:33;43.55;;;21.60;;
53010;SDS011;42803;55.762;38.084;2023-06-22T00:16:02;43.95;;;20.58;;
53010;SDS011;42803;55.762;38.084;2023-06-22T00:18:31;44.58;;;20.55;;
53010;SDS011;42803;55.762;38.084;2023-06-22T00:21:00;40.33;;;17.75;;
53010;SDS011;42803;55.762;38.084;2023-06-22T00:23:29;39.95;;;19.80;;
53010;SDS011;42803;55.762;38.084;2023-06-22T00:26:03;35.63;;;19.67;;
53010;SDS011;42803;55.762;38.084;2023-06-22T00:28:33;39.10;;;18.88;;
53010;SDS011;42803;55.762;38.084;2023-06-22T00:31:02;39.92;;;18.55;;
53010;SDS011;42803;55.762;38.084;2023-06-22T00:33:31;37.80;;;17.73;;
53010;SDS011;42803;55.762;38.084;2023-06-22T00:36:02;33.13;;;16.73;;
53010;SDS011;42803;55.762;38.084;2023-06-22T00:38:31;37.88;;;17.23;;
53010;SDS011;42803;55.762;38.084;2023-06-22T00:41:03;33.58;;;16.65;;
53010;SDS011;42803;55.762;38.084;2023-06-22T00:43:32;30.42;;;15.07;;
53010;SDS011;42803;55.762;38.084;2023-06-22T00:46:03;27.45;;;13.73;;
53010;SDS011;42803;55.762;38.084;2023-06-22T00:48:32;31.02;;;15.07;;
53010;SDS011;42803;55.762;38.084;2023-06-22T00:51:01;22.80;;;13.32;;
53010;SDS011;42803;55.762;38.084;2023-06-22T00:53:31;31.45;;;13.98;;
53010;SDS011;42803;55.762;38.084;2023-06-22T00:56:05;25.15;;;13.43;;
53010;SDS011;42803;55.762;38.084;2023-06-22T00:58:36;23.88;;;12.73;;
53010;SDS011;42803;55.762;38.084;2023-06-22T01:01:09;24.33;;;12.15;;
53010;SDS011;42803;55.762;38.084;2023-06-22T01:03:38;26.70;;;12.20;;
53010;SDS011;42803;55.762;38.084;2023-06-22T01:06:08;23.77;;;12.80;;
53010;SDS011;42803;55.762;38.084;2023-06-22T01:08:40;20.92;;;12.48;;
53010;SDS011;42803;55.762;38.084;2023-06-22T01:11:18;29.60;;;15.10;;
53010;SDS011;42803;55.762;38.084;2023-06-22T01:13:55;30.25;;;15.55;;
53010;SDS011;42803;55.762;38.084;2023-06-22T01:16:30;25.10;;;13.27;;
53010;SDS011;42803;55.762;38.084;2023-06-22T01:19:02;20.70;;;13.02;;
53010;SDS011;42803;55.762;38.084;2023-06-22T01:21:39;20.75;;;11.45;;
53010;SDS011;42803;55.762;38.084;2023-06-22T01:24:11;27.40;;;13.57;;
53010;SDS011;42803;55.762;38.084;2023-06-22T01:26:50;23.42;;;12.55;;
53010;SDS011;42803;55.762;38.084;2023-06-22T01:29:28;20.52;;;10.93;;
53010;SDS011;42803;55.762;38.084;2023-06-22T01:31:59;19.67;;;11.23;;
53010;SDS011;42803;55.762;38.084;2023-06-22T01:37:04;18.48;;;11.38;;
53010;SDS011;42803;55.762;38.084;2023-06-22T01:39:34;20.73;;;11.40;;
53010;SDS011;42803;55.762;38.084;2023-06-22T01:42:04;22.02;;;10.68;;
53010;SDS011;42803;55.762;38.084;2023-06-22T01:44:36;21.65;;;12.77;;
53010;SDS011;42803;55.762;38.084;2023-06-22T01:47:09;24.60;;;10.93;;
53010;SDS011;42803;55.762;38.084;2023-06-22T01:49:38;17.52;;;10.73;;
53010;SDS011;42803;55.762;38.084;2023-06-22T01:52:08;20.40;;;11.20;;
53010;SDS011;42803;55.762;38.084;2023-06-22T01:54:37;17.55;;;10.80;;
53010;SDS011;42803;55.762;38.084;2023-06-22T01:57:07;18.30;;;11.38;;
53010;SDS011;42803;55.762;38.084;2023-06-22T01:59:39;24.10;;;10.88;;
53010;SDS011;42803;55.762;38.084;2023-06-22T02:02:16;20.40;;;11.02;;
53010;SDS011;42803;55.762;38.084;2023-06-22T02:04:54;19.55;;;10.80;;
53010;SDS011;42803;55.762;38.084;2023-06-22T02:07:31;15.60;;;10.05;;
53010;SDS011;42803;55.762;38.084;2023-06-22T02:10:02;18.98;;;10.35;;
53010;SDS011;42803;55.762;38.084;2023-06-22T02:12:34;17.27;;;10.63;;
53010;SDS011;42803;55.762;38.084;2023-06-22T02:15:07;20.00;;;9.80;;
53010;SDS011;42803;55.762;38.084;2023-06-22T02:17:40;15.18;;;9.85;;
53010;SDS011;42803;55.762;38.084;2023-06-22T02:20:12;16.23;;;9.70;;
53010;SDS011;42803;55.762;38.084;2023-06-22T02:22:42;16.92;;;9.52;;
53010;SDS011;42803;55.762;38.084;2023-06-22T02:25:12;19.27;;;10.45;;
53010;SDS011;42803;55.762;38.084;2023-06-22T02:27:41;14.75;;;9.70;;
53010;SDS011;42803;55.762;38.084;2023-06-22T02:30:11;17.95;;;9.63;;
53010;SDS011;42803;55.762;38.084;2023-06-22T02:32:42;15.43;;;10.05;;
53010;SDS011;42803;55.762;38.084;2023-06-22T02:35:15;13.45;;;9.23;;
53010;SDS011;42803;55.762;38.084;2023-06-22T02:37:45;16.13;;;9.55;;
53010;SDS011;42803;55.762;38.084;2023-06-22T02:40:14;16.17;;;10.52;;
53010;SDS011;42803;55.762;38.084;2023-06-22T02:42:45;20.35;;;11.35;;
53010;SDS011;42803;55.762;38.084;2023-06-22T02:45:17;23.80;;;11.32;;
53010;SDS011;42803;55.762;38.084;2023-06-22T02:47:46;22.30;;;11.63;;
53010;SDS011;42803;55.762;38.084;2023-06-22T02:50:17;24.60;;;12.00;;
53010;SDS011;42803;55.762;38.084;2023-06-22T02:52:47;20.92;;;11.82;;
53010;SDS011;42803;55.762;38.084;2023-06-22T02:55:16;27.42;;;11.52;;
53010;SDS011;42803;55.762;38.084;2023-06-22T02:57:53;19.13;;;11.95;;
53010;SDS011;42803;55.762;38.084;2023-06-22T03:00:23;21.85;;;12.73;;
53010;SDS011;42803;55.762;38.084;2023-06-22T03:02:58;21.45;;;10.82;;
53010;SDS011;42803;55.762;38.084;2023-06-22T03:05:28;17.65;;;10.68;;
53010;SDS011;42803;55.762;38.084;2023-06-22T03:07:59;17.95;;;11.00;;
53010;SDS011;42803;55.762;38.084;2023-06-22T03:10:32;19.77;;;11.63;;
53010;SDS011;42803;55.762;38.084;2023-06-22T03:13:01;19.25;;;11.38;;
53010;SDS011;42803;55.762;38.084;2023-06-22T03:15:32;19.17;;;10.95;;
53010;SDS011;42803;55.762;38.084;2023-06-22T03:18:01;18.90;;;10.68;;
53010;SDS011;42803;55.762;38.084;2023-06-22T03:20:31;23.25;;;12.23;;
53010;SDS011;42803;55.762;38.084;2023-06-22T03:23:01;19.65;;;11.77;;
53010;SDS011;42803;55.762;38.084;2023-06-22T03:25:30;20.40;;;11.65;;
53010;SDS011;42803;55.762;38.084;2023-06-22T03:28:02;19.83;;;11.65;;
53010;SDS011;42803;55.762;38.084;2023-06-22T03:30:33;22.83;;;10.88;;
53010;SDS011;42803;55.762;38.084;2023-06-22T03:33:02;19.42;;;10.23;;
53010;SDS011;42803;55.762;38.084;2023-06-22T03:35:33;21.75;;;10.93;;
53010;SDS011;42803;55.762;38.084;2023-06-22T03:38:03;23.92;;;10.82;;
53010;SDS011;42803;55.762;38.084;2023-06-22T03:40:32;26.25;;;10.38;;
53010;SDS011;42803;55.762;38.084;2023-06-22T03:43:01;22.45;;;10.65;;
53010;SDS011;42803;55.762;38.084;2023-06-22T03:45:30;18.60;;;10.25;;
53010;SDS011;42803;55.762;38.084;2023-06-22T03:48:01;22.13;;;10.00;;
53010;SDS011;42803;55.762;38.084;2023-06-22T03:50:31;18.88;;;10.10;;
53010;SDS011;42803;55.762;38.084;2023-06-22T03:53:00;24.85;;;9.98;;
53010;SDS011;42803;55.762;38.084;2023-06-22T03:55:29;20.55;;;10.52;;
53010;SDS011;42803;55.762;38.084;2023-06-22T03:57:59;18.30;;;10.90;;
53010;SDS011;42803;55.762;38.084;2023-06-22T04:00:33;22.92;;;10.85;;
53010;SDS011;42803;55.762;38.084;2023-06-22T04:03:03;23.55;;;11.57;;
53010;SDS011;42803;55.762;38.084;2023-06-22T04:05:35;20.10;;;10.95;;
53010;SDS011;42803;55.762;38.084;2023-06-22T04:08:04;20.23;;;11.45;;
53010;SDS011;42803;55.762;38.084;2023-06-22T04:10:34;22.90;;;10.82;;
53010;SDS011;42803;55.762;38.084;2023-06-22T04:13:03;18.55;;;9.43;;
53010;SDS011;42803;55.762;38.084;2023-06-22T04:15:32;19.17;;;9.75;;
53010;SDS011;42803;55.762;38.084;2023-06-22T04:18:01;21.45;;;8.02;;
53010;SDS011;42803;55.762;38.084;2023-06-22T04:20:32;20.65;;;7.90;;
53010;SDS011;42803;55.762;38.084;2023-06-22T04:23:02;13.52;;;6.57;;
53010;SDS011;42803;55.762;38.084;2023-06-22T04:25:31;12.52;;;6.90;;
53010;SDS011;42803;55.762;38.084;2023-06-22T04:28:00;16.45;;;6.95;;
53010;SDS011;42803;55.762;38.084;2023-06-22T04:30:47;18.33;;;7.05;;
53010;SDS011;42803;55.762;38.084;2023-06-22T04:33:18;14.77;;;5.47;;
53010;SDS011;42803;55.762;38.084;2023-06-22T04:35:48;13.32;;;6.07;;
53010;SDS011;42803;55.762;38.084;2023-06-22T04:38:18;13.90;;;6.15;;
53010;SDS011;42803;55.762;38.084;2023-06-22T04:40:49;11.73;;;6.00;;
53010;SDS011;42803;55.762;38.084;2023-06-22T04:43:20;12.43;;;6.03;;
53010;SDS011;42803;55.762;38.084;2023-06-22T04:45:49;11.43;;;6.47;;
53010;SDS011;42803;55.762;38.084;2023-06-22T04:48:20;12.90;;;6.75;;
53010;SDS011;42803;55.762;38.084;2023-06-22T04:50:50;13.10;;;5.50;;
53010;SDS011;42803;55.762;38.084;2023-06-22T04:53:19;14.32;;;7.20;;
53010;SDS011;42803;55.762;38.084;2023-06-22T04:55:48;14.15;;;6.47;;
53010;SDS011;42803;55.762;38.084;2023-06-22T04:58:20;11.60;;;6.63;;
53010;SDS011;42803;55.762;38.084;2023-06-22T05:00:49;12.90;;;6.07;;
53010;SDS011;42803;55.762;38.084;2023-06-22T05:03:19;13.65;;;6.70;;
53010;SDS011;42803;55.762;38.084;2023-06-22T05:05:50;15.93;;;6.72;;
53010;SDS011;42803;55.762;38.084;2023-06-22T05:08:19;11.15;;;6.53;;
53010;SDS011;42803;55.762;38.084;2023-06-22T05:10:48;16.60;;;6.32;;
53010;SDS011;42803;55.762;38.084;2023-06-22T05:13:31;13.27;;;6.00;;
53010;SDS011;42803;55.762;38.084;2023-06-22T05:16:01;11.93;;;6.22;;
53010;SDS011;42803;55.762;38.084;2023-06-22T05:18:30;15.07;;;6.80;;
53010;SDS011;42803;55.762;38.084;2023-06-22T05:21:01;14.35;;;5.85;;
53010;SDS011;42803;55.762;38.084;2023-06-22T05:23:30;17.08;;;6.70;;
53010;SDS011;42803;55.762;38.084;2023-06-22T05:25:59;16.05;;;6.82;;
53010;SDS011;42803;55.762;38.084;2023-06-22T05:28:30;15.95;;;6.80;;
53010;SDS011;42803;55.762;38.084;2023-06-22T05:31:01;18.80;;;7.35;;
53010;SDS011;42803;55.762;38.084;2023-06-22T05:33:31;14.65;;;6.70;;
53010;SDS011;42803;55.762;38.084;2023-06-22T05:36:02;15.48;;;5.97;;
53010;SDS011;42803;55.762;38.084;2023-06-22T05:38:31;12.27;;;6.68;;
53010;SDS011;42803;55.762;38.084;2023-06-22T05:41:01;13.93;;;6.63;;
53010;SDS011;42803;55.762;38.084;2023-06-22T05:43:30;13.85;;;7.22;;
53010;SDS011;42803;55.762;38.084;2023-06-22T05:45:59;12.52;;;6.00;;
53010;SDS011;42803;55.762;38.084;2023-06-22T05:48:29;16.30;;;7.65;;
53010;SDS011;42803;55.762;38.084;2023-06-22T05:50:58;18.40;;;6.75;;
53010;SDS011;42803;55.762;38.084;2023-06-22T05:53:29;20.05;;;7.13;;
53010;SDS011;42803;55.762;38.084;2023-06-22T05:55:58;20.52;;;6.75;;
53010;SDS011;42803;55.762;38.084;2023-06-22T05:58:27;13.23;;;5.97;;
53010;SDS011;42803;55.762;38.084;2023-06-22T06:00:56;13.73;;;5.80;;
53010;SDS011;42803;55.762;38.084;2023-06-22T06:03:27;12.45;;;6.70;;
53010;SDS011;42803;55.762;38.084;2023-06-22T06:05:57;16.60;;;6.40;;
53010;SDS011;42803;55.762;38.084;2023-06-22T06:08:26;15.40;;;6.78;;
53010;SDS011;42803;55.762;38.084;2023-06-22T06:11:15;15.15;;;7.47;;
53010;SDS011;42803;55.762;38.084;2023-06-22T06:13:44;16.75;;;6.25;;
53010;SDS011;42803;55.762;38.084;2023-06-22T06:19:01;19.90;;;6.25;;
53010;SDS011;42803;55.762;38.084;2023-06-22T06:21:49;13.88;;;6.43;;
53010;SDS011;42803;55.762;38.084;2023-06-22T06:24:18;17.02;;;6.80;;
53010;SDS011;42803;55.762;38.084;2023-06-22T06:29:58;16.55;;;6.65;;
53010;SDS011;42803;55.762;38.084;2023-06-22T06:32:31;14.52;;;5.70;;
53010;SDS011;42803;55.762;38.084;2023-06-22T06:35:00;13.48;;;5.60;;
53010;SDS011;42803;55.762;38.084;2023-06-22T06:37:48;11.35;;;4.95;;
53010;SDS011;42803;55.762;38.084;2023-06-22T06:40:19;10.20;;;5.22;;
53010;SDS011;42803;55.762;38.084;2023-06-22T06:42:48;8.60;;;4.63;;
53010;SDS011;42803;55.762;38.084;2023-06-22T06:48:06;25.73;;;5.15;;
53010;SDS011;42803;55.762;38.084;2023-06-22T06:50:54;12.93;;;5.20;;
53010;SDS011;42803;55.762;38.084;2023-06-22T06:53:23;11.70;;;4.63;;
53010;SDS011;42803;55.762;38.084;2023-06-22T06:55:52;10.85;;;4.75;;
53010;SDS011;42803;55.762;38.084;2023-06-22T06:58:21;9.85;;;4.93;;
53010;SDS011;42803;55.762;38.084;2023-06-22T07:00:52;12.65;;;4.93;;
53010;SDS011;42803;55.762;38.084;2023-06-22T07:03:39;8.05;;;4.10;;
53010;SDS011;42803;55.762;38.084;2023-06-22T07:06:08;9.00;;;4.13;;
53010;SDS011;42803;55.762;38.084;2023-06-22T07:08:37;11.60;;;4.07;;
53010;SDS011;42803;55.762;38.084;2023-06-22T07:11:07;11.95;;;3.60;;
53010;SDS011;42803;55.762;38.084;2023-06-22T07:13:37;7.60;;;3.20;;
53010;SDS011;42803;55.762;38.084;2023-06-22T07:16:07;8.73;;;2.95;;
53010;SDS011;42803;55.762;38.084;2023-06-22T07:18:39;7.60;;;2.78;;
53010;SDS011;42803;55.762;38.084;2023-06-22T07:21:09;4.80;;;3.05;;
53010;SDS011;42803;55.762;38.084;2023-06-22T07:23:53;6.57;;;2.77;;
53010;SDS011;42803;55.762;38.084;2023-06-22T07:26:24;6.85;;;2.72;;
53010;SDS011;42803;55.762;38.084;2023-06-22T07:28:53;3.63;;;1.90;;
53010;SDS011;42803;55.762;38.084;2023-06-22T07:31:23;3.05;;;2.10;;
53010;SDS011;42803;55.762;38.084;2023-06-22T07:33:52;4.47;;;2.20;;
53010;SDS011;42803;55.762;38.084;2023-06-22T07:36:21;3.88;;;2.40;;
53010;SDS011;42803;55.762;38.084;2023-06-22T07:38:50;3.53;;;2.15;;
53010;SDS011;42803;55.762;38.084;2023-06-22T07:41:19;5.32;;;2.22;;
53010;SDS011;42803;55.762;38.084;2023-06-22T07:43:48;5.57;;;2.50;;
53010;SDS011;42803;55.762;38.084;2023-06-22T07:46:18;5.35;;;2.28;;
53010;SDS011;42803;55.762;38.084;2023-06-22T07:48:49;6.45;;;2.35;;
53010;SDS011;42803;55.762;38.084;2023-06-22T07:51:22;3.63;;;2.35;;
53010;SDS011;42803;55.762;38.084;2023-06-22T07:53:51;6.90;;;2.58;;
53010;SDS011;42803;55.762;38.084;2023-06-22T07:56:21;6.43;;;2.78;;
53010;SDS011;42803;55.762;38.084;2023-06-22T07:58:50;7.35;;;2.40;;
53010;SDS011;42803;55.762;38.084;2023-06-22T08:01:20;4.47;;;2.88;;
53010;SDS011;42803;55.762;38.084;2023-06-22T08:03:51;7.85;;;2.95;;
53010;SDS011;42803;55.762;38.084;2023-06-22T08:06:20;6.75;;;2.80;;
53010;SDS011;42803;55.762;38.084;2023-06-22T08:08:49;4.28;;;2.63;;
53010;SDS011;42803;55.762;38.084;2023-06-22T08:11:22;2.53;;;2.00;;
53010;SDS011;42803;55.762;38.084;2023-06-22T08:13:52;6.80;;;2.42;;
53010;SDS011;42803;55.762;38.084;2023-06-22T08:16:23;3.47;;;2.60;;
53010;SDS011;42803;55.762;38.084;2023-06-22T08:18:53;3.13;;;2.45;;
53010;SDS011;42803;55.762;38.084;2023-06-22T08:21:42;4.60;;;2.10;;
53010;SDS011;42803;55.762;38.084;2023-06-22T08:24:11;4.70;;;2.10;;
53010;SDS011;42803;55.762;38.084;2023-06-22T08:26:40;4.80;;;1.98;;
53010;SDS011;42803;55.762;38.084;2023-06-22T08:29:09;3.50;;;2.13;;
53010;SDS011;42803;55.762;38.084;2023-06-22T08:31:57;5.93;;;2.33;;
53010;SDS011;42803;55.762;38.084;2023-06-22T08:34:28;2.72;;;2.03;;
53010;SDS011;42803;55.762;38.084;2023-06-22T08:36:57;3.92;;;2.20;;
53010;SDS011;42803;55.762;38.084;2023-06-22T08:39:27;3.42;;;2.33;;
53010;SDS011;42803;55.762;38.084;2023-06-22T08:41:56;3.00;;;2.20;;
53010;SDS011;42803;55.762;38.084;2023-06-22T08:50:20;3.65;;;2.50;;
53010;SDS011;42803;55.762;38.084;2023-06-22T08:52:49;5.30;;;2.40;;
53010;SDS011;42803;55.762;38.084;2023-06-22T08:55:37;5.57;;;2.33;;
53010;SDS011;42803;55.762;38.084;2023-06-22T09:00:54;3.13;;;2.10;;
53010;SDS011;42803;55.762;38.084;2023-06-22T09:03:23;4.00;;;2.25;;
53010;SDS011;42803;55.762;38.084;2023-06-22T09:05:55;4.18;;;2.33;;
53010;SDS011;42803;55.762;38.084;2023-06-22T09:08:43;4.45;;;2.80;;
53010;SDS011;42803;55.762;38.084;2023-06-22T09:11:13;4.03;;;2.25;;
53010;SDS011;42803;55.762;38.084;2023-06-22T09:13:42;4.05;;;2.60;;
53010;SDS011;42803;55.762;38.084;2023-06-22T09:19:18;4.10;;;2.50;;
53010;SDS011;42803;55.762;38.084;2023-06-22T09:22:08;5.28;;;2.45;;
53010;SDS011;42803;55.762;38.084;2023-06-22T09:24:37;4.47;;;2.20;;
53010;SDS011;42803;55.762;38.084;2023-06-22T09:27:06;3.92;;;2.50;;
53010;SDS011;42803;55.762;38.084;2023-06-22T09:29:36;7.95;;;3.08;;
53010;SDS011;42803;55.762;38.084;2023-06-22T09:32:05;4.07;;;2.65;;
53010;SDS011;42803;55.762;38.084;2023-06-22T09:37:24;4.25;;;2.78;;
53010;SDS011;42803;55.762;38.084;2023-06-22T09:39:54;5.90;;;2.50;;
53010;SDS011;42803;55.762;38.084;2023-06-22T09:42:48;5.60;;;2.60;;
53010;SDS011;42803;55.762;38.084;2023-06-22T09:45:18;4.15;;;2.42;;
53010;SDS011;42803;55.762;38.084;2023-06-22T09:47:47;3.38;;;2.47;;
53010;SDS011;42803;55.762;38.084;2023-06-22T09:50:16;6.70;;;3.08;;
53010;SDS011;42803;55.762;38.084;2023-06-22T09:55:34;4.70;;;2.78;;
53010;SDS011;42803;55.762;38.084;2023-06-22T09:58:04;3.60;;;2.55;;
53010;SDS011;42803;55.762;38.084;2023-06-22T10:00:33;5.78;;;2.78;;
53010;SDS011;42803;55.762;38.084;2023-06-22T10:03:02;4.00;;;2.40;;
53010;SDS011;42803;55.762;38.084;2023-06-22T10:05:35;5.40;;;2.72;;
53010;SDS011;42803;55.762;38.084;2023-06-22T10:08:42;4.22;;;2.70;;
53010;SDS011;42803;55.762;38.084;2023-06-22T10:11:11;4.55;;;2.72;;
53010;SDS011;42803;55.762;38.084;2023-06-22T10:13:40;5.30;;;2.80;;
53010;SDS011;42803;55.762;38.084;2023-06-22T10:18:59;4.78;;;2.17;;
53010;SDS011;42803;55.762;38.084;2023-06-22T10:21:28;7.50;;;3.08;;
53010;SDS011;42803;55.762;38.084;2023-06-22T10:24:36;5.45;;;2.70;;
53010;SDS011;42803;55.762;38.084;2023-06-22T10:27:11;5.28;;;2.40;;
53010;SDS011;42803;55.762;38.084;2023-06-22T10:29:41;6.20;;;2.47;;
53010;SDS011;42803;55.762;38.084;2023-06-22T10:32:12;3.50;;;2.20;;
53010;SDS011;42803;55.762;38.084;2023-06-22T10:37:47;4.13;;;2.40;;
53010;SDS011;42803;55.762;38.084;2023-06-22T10:40:18;5.05;;;2.50;;
53010;SDS011;42803;55.762;38.084;2023-06-22T10:45:54;5.85;;;2.70;;
53010;SDS011;42803;55.762;38.084;2023-06-22T10:48:23;4.88;;;2.90;;
53010;SDS011;42803;55.762;38.084;2023-06-22T10:50:53;4.60;;;2.70;;
53010;SDS011;42803;55.762;38.084;2023-06-22T10:53:22;5.63;;;2.97;;
53010;SDS011;42803;55.762;38.084;2023-06-22T10:55:53;8.82;;;2.60;;
53010;SDS011;42803;55.762;38.084;2023-06-22T10:58:24;3.85;;;2.90;;
53010;SDS011;42803;55.762;38.084;2023-06-22T11:04:03;5.15;;;2.92;;
53010;SDS011;42803;55.762;38.084;2023-06-22T11:06:33;6.13;;;2.97;;
53010;SDS011;42803;55.762;38.084;2023-06-22T11:09:20;5.22;;;3.00;;
53010;SDS011;42803;55.762;38.084;2023-06-22T11:14:27;5.00;;;2.92;;
53010;SDS011;42803;55.762;38.084;2023-06-22T11:19:44;8.35;;;3.03;;
53010;SDS011;42803;55.762;38.084;2023-06-22T11:22:37;4.20;;;2.78;;
53010;SDS011;42803;55.762;38.084;2023-06-22T11:25:07;5.43;;;3.00;;
53010;SDS011;42803;55.762;38.084;2023-06-22T11:27:38;3.70;;;2.65;;
53010;SDS011;42803;55.762;38.084;2023-06-22T11:30:26;7.72;;;3.13;;
53010;SDS011;42803;55.762;38.084;2023-06-22T11:33:12;6.05;;;2.92;;
53010;SDS011;42803;55.762;38.084;2023-06-22T11:35:42;4.72;;;2.58;;
53010;SDS011;42803;55.762;38.084;2023-06-22T11:38:29;5.50;;;3.10;;
53010;SDS011;42803;55.762;38.084;2023-06-22T11:41:15;4.45;;;2.88;;
53010;SDS011;42803;55.762;38.084;2023-06-22T11:43:46;4.13;;;3.35;;
53010;SDS011;42803;55.762;38.084;2023-06-22T11:46:15;9.38;;;3.22;;
53010;SDS011;42803;55.762;38.084;2023-06-22T11:48:44;5.80;;;2.80;;
53010;SDS011;42803;55.762;38.084;2023-06-22T11:51:33;4.80;;;2.83;;
53010;SDS011;42803;55.762;38.084;2023-06-22T11:54:02;4.68;;;2.80;;
53010;SDS011;42803;55.762;38.084;2023-06-22T11:56:32;4.20;;;2.95;;
53010;SDS011;42803;55.762;38.084;2023-06-22T11:59:21;6.32;;;3.00;;
53010;SDS011;42803;55.762;38.084;2023-06-22T12:02:08;5.43;;;3.15;;
53010;SDS011;42803;55.762;38.084;2023-06-22T12:04:38;4.85;;;3.40;;
53010;SDS011;42803;55.762;38.084;2023-06-22T12:07:07;5.30;;;3.47;;
53010;SDS011;42803;55.762;38.084;2023-06-22T12:09:39;6.80;;;2.95;;
53010;SDS011;42803;55.762;38.084;2023-06-22T12:12:29;4.85;;;3.05;;
53010;SDS011;42803;55.762;38.084;2023-06-22T12:15:00;5.63;;;3.20;;
53010;SDS011;42803;55.762;38.084;2023-06-22T12:17:32;8.02;;;3.30;;
53010;SDS011;42803;55.762;38.084;2023-06-22T12:20:01;6.40;;;3.20;;
53010;SDS011;42803;55.762;38.084;2023-06-22T12:22:33;6.30;;;3.30;;
53010;SDS011;42803;55.762;38.084;2023-06-22T12:25:02;5.03;;;3.30;;
53010;SDS011;42803;55.762;38.084;2023-06-22T12:27:32;4.93;;;2.92;;
53010;SDS011;42803;55.762;38.084;2023-06-22T12:30:03;6.03;;;2.67;;
53010;SDS011;42803;55.762;38.084;2023-06-22T12:32:53;3.83;;;2.90;;
53010;SDS011;42803;55.762;38.084;2023-06-22T12:35:23;6.28;;;3.13;;
53010;SDS011;42803;55.762;38.084;2023-06-22T12:40:57;6.03;;;3.88;;
53010;SDS011;42803;55.762;38.084;2023-06-22T12:43:27;6.50;;;3.80;;
53010;SDS011;42803;55.762;38.084;2023-06-22T12:45:57;5.35;;;3.60;;
53010;SDS011;42803;55.762;38.084;2023-06-22T12:48:27;6.95;;;3.42;;
53010;SDS011;42803;55.762;38.084;2023-06-22T12:50:56;5.80;;;3.85;;
53010;SDS011;42803;55.762;38.084;2023-06-22T12:53:44;6.25;;;3.10;;
53010;SDS011;42803;55.762;38.084;2023-06-22T13:02:09;4.32;;;3.55;;
53010;SDS011;42803;55.762;38.084;2023-06-22T13:07:28;6.43;;;3.83;;
53010;SDS011;42803;55.762;38.084;2023-06-22T13:09:58;8.05;;;3.70;;
53010;SDS011;42803;55.762;38.084;2023-06-22T13:12:33;6.78;;;3.90;;
53010;SDS011;42803;55.762;38.084;2023-06-22T13:15:02;7.25;;;3.38;;
53010;SDS011;42803;55.762;38.084;2023-06-22T13:17:51;8.68;;;3.67;;
53010;SDS011;42803;55.762;38.084;2023-06-22T13:20:38;9.02;;;3.85;;
53010;SDS011;42803;55.762;38.084;2023-06-22T13:29:17;8.35;;;3.90;;
53010;SDS011;42803;55.762;38.084;2023-06-22T13:31:47;5.85;;;3.30;;
53010;SDS011;42803;55.762;38.084;2023-06-22T13:34:17;7.03;;;3.42;;
53010;SDS011;42803;55.762;38.084;2023-06-22T13:36:46;6.32;;;3.38;;
53010;SDS011;42803;55.762;38.084;2023-06-22T13:39:34;5.53;;;3.22;;
53010;SDS011;42803;55.762;38.084;2023-06-22T13:42:03;4.55;;;3.53;;
53010;SDS011;42803;55.762;38.084;2023-06-22T13:44:50;6.65;;;3.30;;
53010;SDS011;42803;55.762;38.084;2023-06-22T13:50:09;5.03;;;3.90;;
53010;SDS011;42803;55.762;38.084;2023-06-22T13:52:40;7.03;;;3.90;;
53010;SDS011;42803;55.762;38.084;2023-06-22T13:55:27;6.75;;;4.68;;
53010;SDS011;42803;55.762;38.084;2023-06-22T13:57:58;7.50;;;4.07;;
53010;SDS011;42803;55.762;38.084;2023-06-22T14:00:44;4.93;;;3.83;;
53010;SDS011;42803;55.762;38.084;2023-06-22T14:03:13;6.20;;;3.72;;
53010;SDS011;42803;55.762;38.084;2023-06-22T14:06:02;10.43;;;3.97;;
53010;SDS011;42803;55.762;38.084;2023-06-22T14:08:31;8.07;;;3.90;;
53010;SDS011;42803;55.762;38.084;2023-06-22T14:11:09;7.68;;;3.60;;
53010;SDS011;42803;55.762;38.084;2023-06-22T14:13:56;7.13;;;4.22;;
53010;SDS011;42803;55.762;38.084;2023-06-22T14:16:25;6.80;;;3.63;;
53010;SDS011;42803;55.762;38.084;2023-06-22T14:18:55;11.23;;;3.78;;
53010;SDS011;42803;55.762;38.084;2023-06-22T14:21:43;6.30;;;3.75;;
53010;SDS011;42803;55.762;38.084;2023-06-22T14:24:29;6.85;;;3.75;;
53010;SDS011;42803;55.762;38.084;2023-06-22T14:27:17;6.30;;;4.32;;
53010;SDS011;42803;55.762;38.084;2023-06-22T14:29:46;4.88;;;3.53;;
53010;SDS011;42803;55.762;38.084;2023-06-22T14:32:16;6.10;;;3.80;;
53010;SDS011;42803;55.762;38.084;2023-06-22T14:34:45;9.57;;;3.33;;
53010;SDS011;42803;55.762;38.084;2023-06-22T14:37:15;12.73;;;3.30;;
53010;SDS011;42803;55.762;38.084;2023-06-22T14:39:45;7.95;;;2.92;;
53010;SDS011;42803;55.762;38.084;2023-06-22T14:42:14;4.43;;;3.05;;
53010;SDS011;42803;55.762;38.084;2023-06-22T14:44:45;5.32;;;3.17;;
53010;SDS011;42803;55.762;38.084;2023-06-22T14:47:15;8.25;;;3.38;;
53010;SDS011;42803;55.762;38.084;2023-06-22T14:52:52;6.22;;;3.28;;
53010;SDS011;42803;55.762;38.084;2023-06-22T14:55:24;10.73;;;3.83;;
53010;SDS011;42803;55.762;38.084;2023-06-22T14:57:53;6.72;;;3.13;;
53010;SDS011;42803;55.762;38.084;2023-06-22T15:00:22;8.15;;;3.08;;
53010;SDS011;42803;55.762;38.084;2023-06-22T15:02:52;5.63;;;3.60;;
53010;SDS011;42803;55.762;38.084;2023-06-22T15:05:21;10.45;;;3.65;;
53010;SDS011;42803;55.762;38.084;2023-06-22T15:07:53;8.23;;;3.20;;
53010;SDS011;42803;55.762;38.084;2023-06-22T15:10:39;10.23;;;3.15;;
53010;SDS011;42803;55.762;38.084;2023-06-22T15:13:08;5.95;;;3.15;;
53010;SDS011;42803;55.762;38.084;2023-06-22T15:15:38;4.72;;;3.03;;
53010;SDS011;42803;55.762;38.084;2023-06-22T15:18:07;7.63;;;2.80;;
53010;SDS011;42803;55.762;38.084;2023-06-22T15:20:36;4.82;;;3.35;;
53010;SDS011;42803;55.762;38.084;2023-06-22T15:23:07;10.05;;;3.10;;
53010;SDS011;42803;55.762;38.084;2023-06-22T15:25:37;5.50;;;3.15;;
53010;SDS011;42803;55.762;38.084;2023-06-22T15:28:07;5.82;;;2.72;;
53010;SDS011;42803;55.762;38.084;2023-06-22T15:30:36;7.75;;;3.30;;
53010;SDS011;42803;55.762;38.084;2023-06-22T15:33:23;8.43;;;3.00;;
53010;SDS011;42803;55.762;38.084;2023-06-22T15:36:11;7.13;;;2.75;;
53010;SDS011;42803;55.762;38.084;2023-06-22T15:38:42;6.50;;;2.67;;
53010;SDS011;42803;55.762;38.084;2023-06-22T15:41:11;6.80;;;3.67;;
53010;SDS011;42803;55.762;38.084;2023-06-22T15:43:40;5.25;;;3.28;;
53010;SDS011;42803;55.762;38.084;2023-06-22T15:46:09;8.10;;;3.42;;
53010;SDS011;42803;55.762;38.084;2023-06-22T15:48:38;7.28;;;2.75;;
53010;SDS011;42803;55.762;38.084;2023-06-22T15:51:08;6.07;;;3.30;;
53010;SDS011;42803;55.762;38.084;2023-06-22T15:53:38;6.78;;;2.90;;
53010;SDS011;42803;55.762;38.084;2023-06-22T15:56:09;7.32;;;2.92;;
53010;SDS011;42803;55.762;38.084;2023-06-22T15:58:39;4.43;;;2.58;;
53010;SDS011;42803;55.762;38.084;2023-06-22T16:01:08;4.03;;;3.00;;
53010;SDS011;42803;55.762;38.084;2023-06-22T16:03:37;12.23;;;3.45;;
53010;SDS011;42803;55.762;38.084;2023-06-22T16:08:55;7.28;;;3.08;;